QFA245 YMAY-YMML
Flight info
| Callsign | QFA245 |
|---|---|
| Flight time | N/A |
| Altitude | 16000 |
| Route | AY V147 TEMIS V169 ML |
| Aircraft | B789/H-SDE1E2E3FGHIJ2J3J4J5M1RWXY/LB1D1 |
Departure
| Time | 2026-05-05 03:34 |
|---|---|
| Airport | Albury Airport (YMAY) |
Arrival
| Time | N/A |
|---|---|
| Airport | Melbourne Airport (YMML) |
| Time | Latitude | Longitude | Altitude | Speed | Heading |
|---|---|---|---|---|---|
| 2026-05-05 03:31 | -36.06998 | 146.95216 | 552 ft | 0 kts | 87° |
| 2026-05-05 03:32 | -36.06549 | 146.96940 | 552 ft | 0 kts | 261° |
| 2026-05-05 03:33 | -36.06585 | 146.96652 | 552 ft | 74 kts | 261° |
| 2026-05-05 03:33 | -36.06700 | 146.95736 | 552 ft | 142 kts | 261° |
| 2026-05-05 03:34 | -36.06879 | 146.94366 | 858 ft | 160 kts | 260° |
| 2026-05-05 03:34 | -36.07069 | 146.93101 | 1873 ft | 141 kts | 256° |
| 2026-05-05 03:34 | -36.07559 | 146.92044 | 2366 ft | 146 kts | 236° |
| 2026-05-05 03:34 | -36.08411 | 146.91263 | 2587 ft | 158 kts | 216° |
| 2026-05-05 03:35 | -36.09380 | 146.90643 | 3251 ft | 158 kts | 210° |
| 2026-05-05 03:35 | -36.10391 | 146.90010 | 3824 ft | 169 kts | 208° |
| 2026-05-05 03:35 | -36.11466 | 146.89344 | 4347 ft | 181 kts | 208° |
| 2026-05-05 03:35 | -36.12649 | 146.88609 | 4787 ft | 197 kts | 208° |
| 2026-05-05 03:36 | -36.13907 | 146.87819 | 5202 ft | 214 kts | 208° |
| 2026-05-05 03:36 | -36.15312 | 146.86978 | 5583 ft | 235 kts | 207° |
| 2026-05-05 03:36 | -36.16831 | 146.86052 | 6076 ft | 253 kts | 209° |
| 2026-05-05 03:36 | -36.18389 | 146.84893 | 6688 ft | 267 kts | 213° |
| 2026-05-05 03:37 | -36.19947 | 146.83579 | 7436 ft | 275 kts | 216° |
| 2026-05-05 03:37 | -36.21509 | 146.82168 | 8257 ft | 280 kts | 217° |
| 2026-05-05 03:37 | -36.23071 | 146.80705 | 9077 ft | 283 kts | 218° |
| 2026-05-05 03:37 | -36.24639 | 146.79205 | 9869 ft | 287 kts | 218° |
| 2026-05-05 03:38 | -36.26223 | 146.77669 | 10550 ft | 294 kts | 219° |
| 2026-05-05 03:38 | -36.27849 | 146.76082 | 10953 ft | 310 kts | 219° |
| 2026-05-05 03:38 | -36.29584 | 146.74380 | 11310 ft | 326 kts | 219° |
| 2026-05-05 03:38 | -36.31406 | 146.72588 | 11634 ft | 342 kts | 219° |
| 2026-05-05 03:39 | -36.33306 | 146.70723 | 12041 ft | 354 kts | 219° |
| 2026-05-05 03:39 | -36.35262 | 146.68800 | 12601 ft | 361 kts | 219° |
| 2026-05-05 03:39 | -36.37243 | 146.66849 | 13199 ft | 367 kts | 219° |
| 2026-05-05 03:39 | -36.39259 | 146.64864 | 13842 ft | 371 kts | 219° |
| 2026-05-05 03:40 | -36.41289 | 146.62863 | 14491 ft | 375 kts | 219° |
| 2026-05-05 03:40 | -36.43341 | 146.60834 | 15199 ft | 379 kts | 219° |
| 2026-05-05 03:40 | -36.45425 | 146.58772 | 15637 ft | 387 kts | 220° |
| 2026-05-05 03:40 | -36.47496 | 146.56721 | 15915 ft | 384 kts | 220° |
| 2026-05-05 03:41 | -36.49583 | 146.54654 | 16088 ft | 384 kts | 220° |
| 2026-05-05 03:41 | -36.51685 | 146.52569 | 16139 ft | 390 kts | 220° |
| 2026-05-05 03:41 | -36.53830 | 146.50437 | 16155 ft | 399 kts | 220° |
| 2026-05-05 03:41 | -36.56008 | 146.48273 | 16164 ft | 400 kts | 220° |
| 2026-05-05 03:42 | -36.58180 | 146.46117 | 16168 ft | 399 kts | 220° |
| 2026-05-05 03:42 | -36.60350 | 146.43964 | 16172 ft | 399 kts | 220° |
| 2026-05-05 03:42 | -36.62523 | 146.41806 | 16176 ft | 399 kts | 220° |
| 2026-05-05 03:42 | -36.64660 | 146.39683 | 16172 ft | 399 kts | 220° |
| 2026-05-05 03:43 | -36.66826 | 146.37536 | 16174 ft | 398 kts | 220° |
| 2026-05-05 03:43 | -36.68989 | 146.35382 | 16171 ft | 398 kts | 220° |
| 2026-05-05 03:43 | -36.71155 | 146.33224 | 16172 ft | 398 kts | 220° |
| 2026-05-05 03:43 | -36.73317 | 146.31070 | 16180 ft | 398 kts | 220° |
| 2026-05-05 03:44 | -36.75477 | 146.28914 | 16181 ft | 399 kts | 220° |
| 2026-05-05 03:44 | -36.77650 | 146.26746 | 16176 ft | 399 kts | 220° |
| 2026-05-05 03:44 | -36.79814 | 146.24586 | 16173 ft | 399 kts | 220° |
| 2026-05-05 03:44 | -36.81950 | 146.22450 | 16175 ft | 399 kts | 220° |
| 2026-05-05 03:45 | -36.84138 | 146.20262 | 16182 ft | 399 kts | 220° |
| 2026-05-05 03:45 | -36.86277 | 146.18120 | 16185 ft | 399 kts | 220° |
| 2026-05-05 03:45 | -36.88432 | 146.15962 | 16181 ft | 398 kts | 220° |
| 2026-05-05 03:45 | -36.90600 | 146.13788 | 16175 ft | 398 kts | 219° |
| 2026-05-05 03:46 | -36.92756 | 146.11628 | 16168 ft | 398 kts | 219° |
| 2026-05-05 03:46 | -36.94918 | 146.09459 | 16176 ft | 397 kts | 220° |
| 2026-05-05 03:46 | -36.97067 | 146.07299 | 16183 ft | 397 kts | 220° |
| 2026-05-05 03:46 | -36.99219 | 146.05134 | 16189 ft | 397 kts | 219° |
| 2026-05-05 03:47 | -37.01376 | 146.02963 | 16187 ft | 398 kts | 219° |
| 2026-05-05 03:47 | -37.03509 | 146.00815 | 16182 ft | 398 kts | 219° |
| 2026-05-05 03:47 | -37.05664 | 145.98643 | 16179 ft | 399 kts | 219° |
| 2026-05-05 03:47 | -37.07823 | 145.96464 | 16185 ft | 399 kts | 219° |
| 2026-05-05 03:48 | -37.09980 | 145.94289 | 16187 ft | 399 kts | 219° |
| 2026-05-05 03:48 | -37.12152 | 145.92096 | 15847 ft | 401 kts | 219° |
| 2026-05-05 03:48 | -37.14313 | 145.89913 | 15421 ft | 397 kts | 219° |
| 2026-05-05 03:48 | -37.16446 | 145.87750 | 14952 ft | 391 kts | 219° |
| 2026-05-05 03:49 | -37.18407 | 145.85409 | 14365 ft | 389 kts | 226° |
| 2026-05-05 03:49 | -37.20205 | 145.82891 | 13873 ft | 384 kts | 228° |
| 2026-05-05 03:49 | -37.21919 | 145.80415 | 13468 ft | 378 kts | 229° |
| 2026-05-05 03:49 | -37.23588 | 145.77915 | 13083 ft | 370 kts | 230° |
| 2026-05-05 03:50 | -37.25168 | 145.75427 | 12807 ft | 360 kts | 231° |
| 2026-05-05 03:50 | -37.26681 | 145.72960 | 12515 ft | 351 kts | 232° |
| 2026-05-05 03:50 | -37.28128 | 145.70544 | 12204 ft | 343 kts | 232° |
| 2026-05-05 03:50 | -37.29538 | 145.68154 | 11892 ft | 335 kts | 233° |
| 2026-05-05 03:51 | -37.30823 | 145.65749 | 11586 ft | 328 kts | 236° |
| 2026-05-05 03:51 | -37.32035 | 145.63350 | 11261 ft | 323 kts | 237° |
| 2026-05-05 03:51 | -37.33201 | 145.61010 | 10931 ft | 318 kts | 237° |
| 2026-05-05 03:51 | -37.34360 | 145.58672 | 10602 ft | 312 kts | 237° |
| 2026-05-05 03:52 | -37.35460 | 145.56449 | 10367 ft | 282 kts | 238° |
| 2026-05-05 03:52 | -37.36431 | 145.54487 | 10036 ft | 251 kts | 238° |
| 2026-05-05 03:52 | -37.37338 | 145.52652 | 9734 ft | 245 kts | 238° |
| 2026-05-05 03:52 | -37.38253 | 145.50798 | 9560 ft | 254 kts | 238° |
| 2026-05-05 03:53 | -37.39187 | 145.48909 | 9378 ft | 254 kts | 238° |
| 2026-05-05 03:53 | -37.40116 | 145.47031 | 9183 ft | 253 kts | 238° |